sensor_id;sensor_type;location;lat;lon;timestamp;P1;durP1;ratioP1;P2;durP2;ratioP2
16073;SDS011;8141;52.664;5.074;2023-09-19T00:00:19;1.93;;;1.00;;
16073;SDS011;8141;52.664;5.074;2023-09-19T00:02:55;1.60;;;0.77;;
16073;SDS011;8141;52.664;5.074;2023-09-19T00:05:24;1.40;;;0.90;;
16073;SDS011;8141;52.664;5.074;2023-09-19T00:07:55;1.50;;;0.80;;
16073;SDS011;8141;52.664;5.074;2023-09-19T00:10:26;1.07;;;0.77;;
16073;SDS011;8141;52.664;5.074;2023-09-19T00:12:56;1.20;;;0.83;;
16073;SDS011;8141;52.664;5.074;2023-09-19T00:15:25;1.50;;;1.07;;
16073;SDS011;8141;52.664;5.074;2023-09-19T00:17:55;2.63;;;1.17;;
16073;SDS011;8141;52.664;5.074;2023-09-19T00:20:21;2.23;;;1.10;;
16073;SDS011;8141;52.664;5.074;2023-09-19T00:22:48;1.53;;;0.80;;
16073;SDS011;8141;52.664;5.074;2023-09-19T00:25:18;1.77;;;1.00;;
16073;SDS011;8141;52.664;5.074;2023-09-19T00:27:45;2.10;;;1.10;;
16073;SDS011;8141;52.664;5.074;2023-09-19T00:30:12;1.33;;;0.83;;
16073;SDS011;8141;52.664;5.074;2023-09-19T00:32:41;1.63;;;0.93;;
16073;SDS011;8141;52.664;5.074;2023-09-19T00:35:08;1.67;;;0.93;;
16073;SDS011;8141;52.664;5.074;2023-09-19T00:37:37;2.10;;;1.10;;
16073;SDS011;8141;52.664;5.074;2023-09-19T00:40:05;1.93;;;0.70;;
16073;SDS011;8141;52.664;5.074;2023-09-19T00:46:18;1.10;;;0.73;;
16073;SDS011;8141;52.664;5.074;2023-09-19T00:48:43;0.73;;;0.53;;
16073;SDS011;8141;52.664;5.074;2023-09-19T00:51:10;2.70;;;0.90;;
16073;SDS011;8141;52.664;5.074;2023-09-19T00:53:36;2.90;;;1.10;;
16073;SDS011;8141;52.664;5.074;2023-09-19T00:56:04;1.53;;;0.80;;
16073;SDS011;8141;52.664;5.074;2023-09-19T00:58:31;1.47;;;0.90;;
16073;SDS011;8141;52.664;5.074;2023-09-19T01:01:00;1.07;;;0.70;;
16073;SDS011;8141;52.664;5.074;2023-09-19T01:03:28;1.33;;;0.80;;
16073;SDS011;8141;52.664;5.074;2023-09-19T01:05:53;1.37;;;0.80;;
16073;SDS011;8141;52.664;5.074;2023-09-19T01:08:19;1.23;;;0.80;;
16073;SDS011;8141;52.664;5.074;2023-09-19T01:10:55;1.30;;;0.73;;
16073;SDS011;8141;52.664;5.074;2023-09-19T01:13:41;0.90;;;0.70;;
16073;SDS011;8141;52.664;5.074;2023-09-19T01:16:42;1.37;;;0.73;;
16073;SDS011;8141;52.664;5.074;2023-09-19T01:25:01;1.30;;;0.77;;
16073;SDS011;8141;52.664;5.074;2023-09-19T01:28:42;1.37;;;0.87;;
16073;SDS011;8141;52.664;5.074;2023-09-19T01:30:56;1.83;;;0.90;;
16073;SDS011;8141;52.664;5.074;2023-09-19T01:33:25;1.07;;;0.80;;
16073;SDS011;8141;52.664;5.074;2023-09-19T01:35:59;2.20;;;0.87;;
16073;SDS011;8141;52.664;5.074;2023-09-19T01:38:24;0.97;;;0.60;;
16073;SDS011;8141;52.664;5.074;2023-09-19T01:41:01;0.97;;;0.57;;
16073;SDS011;8141;52.664;5.074;2023-09-19T01:43:38;2.20;;;0.90;;
16073;SDS011;8141;52.664;5.074;2023-09-19T01:48:57;1.93;;;0.73;;
16073;SDS011;8141;52.664;5.074;2023-09-19T01:52:02;1.07;;;0.70;;
16073;SDS011;8141;52.664;5.074;2023-09-19T01:54:51;1.23;;;0.83;;
16073;SDS011;8141;52.664;5.074;2023-09-19T02:00:00;1.52;;;0.93;;
16073;SDS011;8141;52.664;5.074;2023-09-19T02:02:31;1.33;;;0.77;;
16073;SDS011;8141;52.664;5.074;2023-09-19T02:05:05;2.47;;;0.80;;
16073;SDS011;8141;52.664;5.074;2023-09-19T02:07:31;1.63;;;0.77;;
16073;SDS011;8141;52.664;5.074;2023-09-19T02:09:57;1.37;;;0.50;;
16073;SDS011;8141;52.664;5.074;2023-09-19T02:12:30;2.23;;;0.90;;
16073;SDS011;8141;52.664;5.074;2023-09-19T02:14:57;1.73;;;0.70;;
16073;SDS011;8141;52.664;5.074;2023-09-19T02:17:24;1.17;;;0.70;;
16073;SDS011;8141;52.664;5.074;2023-09-19T02:19:53;1.17;;;0.70;;
16073;SDS011;8141;52.664;5.074;2023-09-19T02:22:23;1.37;;;0.70;;
16073;SDS011;8141;52.664;5.074;2023-09-19T02:24:50;2.10;;;0.63;;
16073;SDS011;8141;52.664;5.074;2023-09-19T02:27:16;1.57;;;0.80;;
16073;SDS011;8141;52.664;5.074;2023-09-19T02:29:42;1.20;;;0.83;;
16073;SDS011;8141;52.664;5.074;2023-09-19T02:32:08;0.77;;;0.57;;
16073;SDS011;8141;52.664;5.074;2023-09-19T02:34:34;0.67;;;0.50;;
16073;SDS011;8141;52.664;5.074;2023-09-19T02:37:04;1.00;;;0.67;;
16073;SDS011;8141;52.664;5.074;2023-09-19T02:39:38;0.80;;;0.70;;
16073;SDS011;8141;52.664;5.074;2023-09-19T02:42:04;1.50;;;0.77;;
16073;SDS011;8141;52.664;5.074;2023-09-19T02:44:30;1.13;;;0.60;;
16073;SDS011;8141;52.664;5.074;2023-09-19T02:46:56;1.33;;;0.70;;
16073;SDS011;8141;52.664;5.074;2023-09-19T02:49:22;1.67;;;0.90;;
16073;SDS011;8141;52.664;5.074;2023-09-19T02:51:48;0.70;;;0.70;;
16073;SDS011;8141;52.664;5.074;2023-09-19T02:54:14;2.53;;;0.80;;
16073;SDS011;8141;52.664;5.074;2023-09-19T02:56:41;1.97;;;0.80;;
16073;SDS011;8141;52.664;5.074;2023-09-19T02:59:07;1.20;;;0.57;;
16073;SDS011;8141;52.664;5.074;2023-09-19T03:01:35;0.53;;;0.50;;
16073;SDS011;8141;52.664;5.074;2023-09-19T03:04:03;1.77;;;0.70;;
16073;SDS011;8141;52.664;5.074;2023-09-19T03:06:31;1.10;;;0.63;;
16073;SDS011;8141;52.664;5.074;2023-09-19T03:08:57;1.00;;;0.60;;
16073;SDS011;8141;52.664;5.074;2023-09-19T03:11:25;1.13;;;0.80;;
16073;SDS011;8141;52.664;5.074;2023-09-19T03:13:54;0.90;;;0.50;;
16073;SDS011;8141;52.664;5.074;2023-09-19T03:16:20;1.30;;;0.80;;
16073;SDS011;8141;52.664;5.074;2023-09-19T03:18:48;1.13;;;0.60;;
16073;SDS011;8141;52.664;5.074;2023-09-19T03:21:17;0.63;;;0.40;;
16073;SDS011;8141;52.664;5.074;2023-09-19T03:23:44;1.20;;;0.70;;
16073;SDS011;8141;52.664;5.074;2023-09-19T03:26:10;1.07;;;0.63;;
16073;SDS011;8141;52.664;5.074;2023-09-19T03:28:38;1.23;;;0.70;;
16073;SDS011;8141;52.664;5.074;2023-09-19T03:31:04;1.20;;;0.70;;
16073;SDS011;8141;52.664;5.074;2023-09-19T03:33:31;0.90;;;0.53;;
16073;SDS011;8141;52.664;5.074;2023-09-19T03:35:59;1.87;;;0.73;;
16073;SDS011;8141;52.664;5.074;2023-09-19T03:38:26;1.13;;;0.50;;
16073;SDS011;8141;52.664;5.074;2023-09-19T03:40:53;1.23;;;0.70;;
16073;SDS011;8141;52.664;5.074;2023-09-19T03:43:19;1.70;;;0.83;;
16073;SDS011;8141;52.664;5.074;2023-09-19T03:45:45;0.80;;;0.50;;
16073;SDS011;8141;52.664;5.074;2023-09-19T03:48:11;2.00;;;0.73;;
16073;SDS011;8141;52.664;5.074;2023-09-19T03:50:38;2.63;;;1.00;;
16073;SDS011;8141;52.664;5.074;2023-09-19T03:53:04;1.20;;;0.80;;
16073;SDS011;8141;52.664;5.074;2023-09-19T03:55:32;1.27;;;0.50;;
16073;SDS011;8141;52.664;5.074;2023-09-19T03:58:00;1.07;;;0.63;;
16073;SDS011;8141;52.664;5.074;2023-09-19T04:00:27;1.10;;;0.80;;
16073;SDS011;8141;52.664;5.074;2023-09-19T04:02:54;1.47;;;0.70;;
16073;SDS011;8141;52.664;5.074;2023-09-19T04:05:21;1.53;;;0.60;;
16073;SDS011;8141;52.664;5.074;2023-09-19T04:07:48;0.97;;;0.63;;
16073;SDS011;8141;52.664;5.074;2023-09-19T04:10:15;0.93;;;0.50;;
16073;SDS011;8141;52.664;5.074;2023-09-19T04:12:47;1.37;;;0.63;;
16073;SDS011;8141;52.664;5.074;2023-09-19T04:15:19;1.27;;;0.60;;
16073;SDS011;8141;52.664;5.074;2023-09-19T04:17:47;1.13;;;0.63;;
16073;SDS011;8141;52.664;5.074;2023-09-19T04:20:14;1.20;;;0.80;;
16073;SDS011;8141;52.664;5.074;2023-09-19T04:22:42;1.17;;;0.60;;
16073;SDS011;8141;52.664;5.074;2023-09-19T04:25:08;1.27;;;0.63;;
16073;SDS011;8141;52.664;5.074;2023-09-19T04:27:34;0.97;;;0.53;;
16073;SDS011;8141;52.664;5.074;2023-09-19T04:30:00;1.43;;;0.63;;
16073;SDS011;8141;52.664;5.074;2023-09-19T04:32:29;0.70;;;0.43;;
16073;SDS011;8141;52.664;5.074;2023-09-19T04:34:57;1.17;;;0.63;;
16073;SDS011;8141;52.664;5.074;2023-09-19T04:37:25;1.17;;;0.60;;
16073;SDS011;8141;52.664;5.074;2023-09-19T04:39:51;2.20;;;0.60;;
16073;SDS011;8141;52.664;5.074;2023-09-19T04:42:17;3.00;;;0.63;;
16073;SDS011;8141;52.664;5.074;2023-09-19T04:44:42;0.97;;;0.57;;
16073;SDS011;8141;52.664;5.074;2023-09-19T04:47:08;1.33;;;0.70;;
16073;SDS011;8141;52.664;5.074;2023-09-19T04:49:34;1.70;;;0.73;;
16073;SDS011;8141;52.664;5.074;2023-09-19T04:52:00;2.33;;;0.77;;
16073;SDS011;8141;52.664;5.074;2023-09-19T04:54:25;4.90;;;1.47;;
16073;SDS011;8141;52.664;5.074;2023-09-19T04:56:52;4.87;;;1.97;;
16073;SDS011;8141;52.664;5.074;2023-09-19T04:59:17;5.03;;;1.50;;
16073;SDS011;8141;52.664;5.074;2023-09-19T05:01:43;9.07;;;1.93;;
16073;SDS011;8141;52.664;5.074;2023-09-19T05:04:09;2.77;;;1.10;;
16073;SDS011;8141;52.664;5.074;2023-09-19T05:06:35;9.90;;;1.90;;
16073;SDS011;8141;52.664;5.074;2023-09-19T05:09:00;4.67;;;1.27;;
16073;SDS011;8141;52.664;5.074;2023-09-19T05:11:30;6.23;;;1.70;;
16073;SDS011;8141;52.664;5.074;2023-09-19T05:13:55;5.27;;;1.70;;
16073;SDS011;8141;52.664;5.074;2023-09-19T05:16:21;5.17;;;1.57;;
16073;SDS011;8141;52.664;5.074;2023-09-19T05:18:47;6.17;;;1.77;;
16073;SDS011;8141;52.664;5.074;2023-09-19T05:21:14;5.23;;;2.03;;
16073;SDS011;8141;52.664;5.074;2023-09-19T05:23:40;5.73;;;1.53;;
16073;SDS011;8141;52.664;5.074;2023-09-19T05:26:06;9.37;;;1.80;;
16073;SDS011;8141;52.664;5.074;2023-09-19T05:28:32;6.80;;;1.90;;
16073;SDS011;8141;52.664;5.074;2023-09-19T05:31:02;6.33;;;2.10;;
16073;SDS011;8141;52.664;5.074;2023-09-19T05:33:28;7.70;;;2.53;;
16073;SDS011;8141;52.664;5.074;2023-09-19T05:35:56;5.17;;;1.67;;
16073;SDS011;8141;52.664;5.074;2023-09-19T05:38:22;6.07;;;1.97;;
16073;SDS011;8141;52.664;5.074;2023-09-19T05:40:49;7.47;;;1.73;;
16073;SDS011;8141;52.664;5.074;2023-09-19T05:43:15;5.90;;;2.20;;
16073;SDS011;8141;52.664;5.074;2023-09-19T05:45:40;8.20;;;2.33;;
16073;SDS011;8141;52.664;5.074;2023-09-19T05:48:07;5.70;;;2.13;;
16073;SDS011;8141;52.664;5.074;2023-09-19T05:50:38;9.23;;;2.37;;
16073;SDS011;8141;52.664;5.074;2023-09-19T05:53:04;4.80;;;1.47;;
16073;SDS011;8141;52.664;5.074;2023-09-19T05:55:31;5.80;;;1.70;;
16073;SDS011;8141;52.664;5.074;2023-09-19T05:57:58;4.00;;;1.50;;
16073;SDS011;8141;52.664;5.074;2023-09-19T06:00:24;6.80;;;2.03;;
16073;SDS011;8141;52.664;5.074;2023-09-19T06:02:52;8.07;;;1.80;;
16073;SDS011;8141;52.664;5.074;2023-09-19T06:05:21;10.40;;;2.20;;
16073;SDS011;8141;52.664;5.074;2023-09-19T06:07:48;6.47;;;2.13;;
16073;SDS011;8141;52.664;5.074;2023-09-19T06:10:15;4.33;;;2.00;;
16073;SDS011;8141;52.664;5.074;2023-09-19T06:12:42;7.57;;;1.90;;
16073;SDS011;8141;52.664;5.074;2023-09-19T06:15:15;6.43;;;1.83;;
16073;SDS011;8141;52.664;5.074;2023-09-19T06:17:47;4.87;;;1.87;;
16073;SDS011;8141;52.664;5.074;2023-09-19T06:20:21;6.00;;;1.90;;
16073;SDS011;8141;52.664;5.074;2023-09-19T06:22:48;4.60;;;1.50;;
16073;SDS011;8141;52.664;5.074;2023-09-19T06:25:15;4.70;;;1.53;;
16073;SDS011;8141;52.664;5.074;2023-09-19T06:27:47;4.50;;;1.93;;
16073;SDS011;8141;52.664;5.074;2023-09-19T06:30:18;5.20;;;1.90;;
16073;SDS011;8141;52.664;5.074;2023-09-19T06:32:45;3.93;;;1.53;;
16073;SDS011;8141;52.664;5.074;2023-09-19T06:35:11;6.27;;;1.90;;
16073;SDS011;8141;52.664;5.074;2023-09-19T06:37:39;8.00;;;2.27;;
16073;SDS011;8141;52.664;5.074;2023-09-19T06:42:38;6.27;;;1.60;;
16073;SDS011;8141;52.664;5.074;2023-09-19T06:45:17;6.90;;;1.87;;
16073;SDS011;8141;52.664;5.074;2023-09-19T06:47:44;5.27;;;2.13;;
16073;SDS011;8141;52.664;5.074;2023-09-19T06:50:17;8.87;;;2.73;;
16073;SDS011;8141;52.664;5.074;2023-09-19T06:52:45;9.53;;;2.33;;
16073;SDS011;8141;52.664;5.074;2023-09-19T06:55:18;6.43;;;1.70;;
16073;SDS011;8141;52.664;5.074;2023-09-19T06:57:45;8.27;;;2.13;;
16073;SDS011;8141;52.664;5.074;2023-09-19T07:00:12;10.53;;;2.67;;
16073;SDS011;8141;52.664;5.074;2023-09-19T07:05:38;7.07;;;2.20;;
16073;SDS011;8141;52.664;5.074;2023-09-19T07:08:06;6.17;;;1.93;;
16073;SDS011;8141;52.664;5.074;2023-09-19T07:10:33;9.23;;;2.53;;
16073;SDS011;8141;52.664;5.074;2023-09-19T07:12:59;5.80;;;2.03;;
16073;SDS011;8141;52.664;5.074;2023-09-19T07:15:28;7.70;;;1.90;;
16073;SDS011;8141;52.664;5.074;2023-09-19T07:17:56;7.80;;;2.00;;
16073;SDS011;8141;52.664;5.074;2023-09-19T07:20:22;7.17;;;1.80;;
16073;SDS011;8141;52.664;5.074;2023-09-19T07:22:56;7.23;;;1.87;;
16073;SDS011;8141;52.664;5.074;2023-09-19T07:25:24;9.10;;;2.20;;
16073;SDS011;8141;52.664;5.074;2023-09-19T07:27:51;9.50;;;2.60;;
16073;SDS011;8141;52.664;5.074;2023-09-19T07:30:17;6.77;;;2.23;;
16073;SDS011;8141;52.664;5.074;2023-09-19T07:32:43;8.97;;;2.53;;
16073;SDS011;8141;52.664;5.074;2023-09-19T07:35:09;8.57;;;2.33;;
16073;SDS011;8141;52.664;5.074;2023-09-19T07:37:34;9.87;;;2.87;;
16073;SDS011;8141;52.664;5.074;2023-09-19T07:40:01;7.13;;;2.10;;
16073;SDS011;8141;52.664;5.074;2023-09-19T07:42:32;7.87;;;2.50;;
16073;SDS011;8141;52.664;5.074;2023-09-19T07:45:00;8.40;;;2.93;;
16073;SDS011;8141;52.664;5.074;2023-09-19T07:47:26;7.43;;;2.40;;
16073;SDS011;8141;52.664;5.074;2023-09-19T07:49:55;9.90;;;2.27;;
16073;SDS011;8141;52.664;5.074;2023-09-19T07:52:21;11.23;;;2.40;;
16073;SDS011;8141;52.664;5.074;2023-09-19T07:54:48;8.43;;;2.33;;
16073;SDS011;8141;52.664;5.074;2023-09-19T07:57:14;9.33;;;2.70;;
16073;SDS011;8141;52.664;5.074;2023-09-19T07:59:41;9.17;;;2.30;;
16073;SDS011;8141;52.664;5.074;2023-09-19T08:02:07;7.03;;;2.20;;
16073;SDS011;8141;52.664;5.074;2023-09-19T08:04:40;5.07;;;1.93;;
16073;SDS011;8141;52.664;5.074;2023-09-19T08:07:11;9.97;;;2.83;;
16073;SDS011;8141;52.664;5.074;2023-09-19T08:09:38;6.33;;;2.27;;
16073;SDS011;8141;52.664;5.074;2023-09-19T08:12:05;5.40;;;1.97;;
16073;SDS011;8141;52.664;5.074;2023-09-19T08:14:35;5.37;;;1.87;;
16073;SDS011;8141;52.664;5.074;2023-09-19T08:17:02;8.33;;;2.50;;
16073;SDS011;8141;52.664;5.074;2023-09-19T08:19:30;10.20;;;2.40;;
16073;SDS011;8141;52.664;5.074;2023-09-19T08:21:57;7.57;;;2.50;;
16073;SDS011;8141;52.664;5.074;2023-09-19T08:24:24;6.23;;;2.20;;
16073;SDS011;8141;52.664;5.074;2023-09-19T08:26:57;6.63;;;1.97;;
16073;SDS011;8141;52.664;5.074;2023-09-19T08:29:23;7.53;;;2.03;;
16073;SDS011;8141;52.664;5.074;2023-09-19T08:31:58;6.57;;;1.83;;
16073;SDS011;8141;52.664;5.074;2023-09-19T08:34:24;9.07;;;2.50;;
16073;SDS011;8141;52.664;5.074;2023-09-19T08:36:51;8.60;;;2.67;;
16073;SDS011;8141;52.664;5.074;2023-09-19T08:39:21;6.67;;;1.77;;
16073;SDS011;8141;52.664;5.074;2023-09-19T08:41:57;8.37;;;2.23;;
16073;SDS011;8141;52.664;5.074;2023-09-19T08:46:55;9.60;;;2.70;;
16073;SDS011;8141;52.664;5.074;2023-09-19T08:49:39;10.63;;;2.83;;
16073;SDS011;8141;52.664;5.074;2023-09-19T08:52:44;9.83;;;2.40;;
16073;SDS011;8141;52.664;5.074;2023-09-19T08:55:15;5.23;;;2.40;;
16073;SDS011;8141;52.664;5.074;2023-09-19T08:57:46;6.97;;;2.33;;
16073;SDS011;8141;52.664;5.074;2023-09-19T09:00:15;6.77;;;2.13;;
16073;SDS011;8141;52.664;5.074;2023-09-19T09:02:46;13.47;;;2.90;;
16073;SDS011;8141;52.664;5.074;2023-09-19T09:05:13;5.47;;;2.73;;
16073;SDS011;8141;52.664;5.074;2023-09-19T09:07:41;8.63;;;2.30;;
16073;SDS011;8141;52.664;5.074;2023-09-19T09:10:08;10.27;;;2.43;;
16073;SDS011;8141;52.664;5.074;2023-09-19T09:12:35;6.87;;;2.40;;
16073;SDS011;8141;52.664;5.074;2023-09-19T09:15:06;9.70;;;2.83;;
16073;SDS011;8141;52.664;5.074;2023-09-19T09:17:33;8.33;;;2.60;;
16073;SDS011;8141;52.664;5.074;2023-09-19T09:19:59;6.40;;;2.80;;
16073;SDS011;8141;52.664;5.074;2023-09-19T09:22:25;8.57;;;2.70;;
16073;SDS011;8141;52.664;5.074;2023-09-19T09:24:55;10.10;;;3.13;;
16073;SDS011;8141;52.664;5.074;2023-09-19T09:27:23;9.00;;;2.60;;
16073;SDS011;8141;52.664;5.074;2023-09-19T09:29:50;9.40;;;2.60;;
16073;SDS011;8141;52.664;5.074;2023-09-19T09:34:46;9.10;;;2.47;;
16073;SDS011;8141;52.664;5.074;2023-09-19T09:37:18;8.20;;;3.07;;
16073;SDS011;8141;52.664;5.074;2023-09-19T09:39:55;8.93;;;3.53;;
16073;SDS011;8141;52.664;5.074;2023-09-19T09:45:13;8.03;;;2.80;;
16073;SDS011;8141;52.664;5.074;2023-09-19T09:47:54;9.03;;;2.60;;
16073;SDS011;8141;52.664;5.074;2023-09-19T09:53:25;9.73;;;2.67;;
16073;SDS011;8141;52.664;5.074;2023-09-19T09:56:02;11.43;;;2.90;;
16073;SDS011;8141;52.664;5.074;2023-09-19T09:58:40;8.50;;;2.97;;
16073;SDS011;8141;52.664;5.074;2023-09-19T10:01:21;9.40;;;2.85;;
16073;SDS011;8141;52.664;5.074;2023-09-19T10:03:52;11.07;;;3.03;;
16073;SDS011;8141;52.664;5.074;2023-09-19T10:06:23;10.90;;;2.93;;
16073;SDS011;8141;52.664;5.074;2023-09-19T10:08:58;10.37;;;3.00;;
16073;SDS011;8141;52.664;5.074;2023-09-19T10:11:46;9.57;;;2.33;;
16073;SDS011;8141;52.664;5.074;2023-09-19T10:14:21;7.23;;;2.30;;
16073;SDS011;8141;52.664;5.074;2023-09-19T10:16:56;11.70;;;2.90;;
16073;SDS011;8141;52.664;5.074;2023-09-19T10:22:11;9.37;;;2.80;;
16073;SDS011;8141;52.664;5.074;2023-09-19T10:24:45;9.80;;;3.03;;
16073;SDS011;8141;52.664;5.074;2023-09-19T10:27:13;14.63;;;2.87;;
16073;SDS011;8141;52.664;5.074;2023-09-19T10:29:42;8.67;;;2.73;;
16073;SDS011;8141;52.664;5.074;2023-09-19T10:32:13;9.30;;;2.63;;
16073;SDS011;8141;52.664;5.074;2023-09-19T10:34:44;8.13;;;2.50;;
16073;SDS011;8141;52.664;5.074;2023-09-19T10:37:13;8.77;;;2.40;;
16073;SDS011;8141;52.664;5.074;2023-09-19T10:39:41;8.97;;;2.50;;
16073;SDS011;8141;52.664;5.074;2023-09-19T10:42:13;8.53;;;2.43;;
16073;SDS011;8141;52.664;5.074;2023-09-19T10:44:45;10.60;;;2.60;;
16073;SDS011;8141;52.664;5.074;2023-09-19T10:47:18;10.27;;;2.57;;
16073;SDS011;8141;52.664;5.074;2023-09-19T10:49:45;8.63;;;2.73;;
16073;SDS011;8141;52.664;5.074;2023-09-19T10:52:12;9.80;;;2.63;;
16073;SDS011;8141;52.664;5.074;2023-09-19T10:54:45;11.23;;;3.03;;
16073;SDS011;8141;52.664;5.074;2023-09-19T10:57:20;11.13;;;2.90;;
16073;SDS011;8141;52.664;5.074;2023-09-19T11:05:40;10.13;;;2.77;;
16073;SDS011;8141;52.664;5.074;2023-09-19T11:08:06;10.63;;;2.70;;
16073;SDS011;8141;52.664;5.074;2023-09-19T11:10:49;8.60;;;3.07;;
16073;SDS011;8141;52.664;5.074;2023-09-19T11:24:31;6.30;;;2.30;;
16073;SDS011;8141;52.664;5.074;2023-09-19T11:27:14;8.17;;;2.03;;
16073;SDS011;8141;52.664;5.074;2023-09-19T11:29:43;9.37;;;2.20;;
16073;SDS011;8141;52.664;5.074;2023-09-19T11:32:09;7.47;;;2.00;;
16073;SDS011;8141;52.664;5.074;2023-09-19T11:37:01;6.20;;;1.87;;
16073;SDS011;8141;52.664;5.074;2023-09-19T11:39:40;8.23;;;2.20;;
16073;SDS011;8141;52.664;5.074;2023-09-19T11:42:41;6.50;;;2.00;;
16073;SDS011;8141;52.664;5.074;2023-09-19T11:48:15;8.03;;;2.40;;
16073;SDS011;8141;52.664;5.074;2023-09-19T11:50:44;5.10;;;1.60;;
16073;SDS011;8141;52.664;5.074;2023-09-19T11:53:12;6.80;;;2.00;;
16073;SDS011;8141;52.664;5.074;2023-09-19T11:55:39;7.93;;;2.37;;
16073;SDS011;8141;52.664;5.074;2023-09-19T11:58:08;11.07;;;2.07;;
16073;SDS011;8141;52.664;5.074;2023-09-19T12:00:37;7.10;;;1.97;;
16073;SDS011;8141;52.664;5.074;2023-09-19T12:03:08;4.17;;;1.37;;
16073;SDS011;8141;52.664;5.074;2023-09-19T12:05:35;7.27;;;1.57;;
16073;SDS011;8141;52.664;5.074;2023-09-19T12:08:02;9.13;;;2.00;;
16073;SDS011;8141;52.664;5.074;2023-09-19T12:10:33;7.57;;;1.80;;
16073;SDS011;8141;52.664;5.074;2023-09-19T12:13:19;10.90;;;2.03;;
16073;SDS011;8141;52.664;5.074;2023-09-19T12:15:46;6.17;;;1.57;;
16073;SDS011;8141;52.664;5.074;2023-09-19T12:18:30;7.40;;;2.10;;
16073;SDS011;8141;52.664;5.074;2023-09-19T12:20:56;7.80;;;1.73;;
16073;SDS011;8141;52.664;5.074;2023-09-19T12:23:27;5.97;;;1.80;;
16073;SDS011;8141;52.664;5.074;2023-09-19T12:25:54;5.60;;;1.80;;
16073;SDS011;8141;52.664;5.074;2023-09-19T12:28:22;7.60;;;1.80;;
16073;SDS011;8141;52.664;5.074;2023-09-19T12:30:56;4.97;;;1.43;;
16073;SDS011;8141;52.664;5.074;2023-09-19T12:33:23;4.33;;;1.70;;
16073;SDS011;8141;52.664;5.074;2023-09-19T12:35:52;3.97;;;1.50;;
16073;SDS011;8141;52.664;5.074;2023-09-19T12:38:27;4.20;;;1.37;;
16073;SDS011;8141;52.664;5.074;2023-09-19T12:40:56;5.53;;;1.70;;
16073;SDS011;8141;52.664;5.074;2023-09-19T12:43:25;6.73;;;1.80;;
16073;SDS011;8141;52.664;5.074;2023-09-19T12:45:52;5.13;;;1.60;;
16073;SDS011;8141;52.664;5.074;2023-09-19T12:51:04;5.80;;;1.58;;
16073;SDS011;8141;52.664;5.074;2023-09-19T12:53:38;6.03;;;1.70;;
16073;SDS011;8141;52.664;5.074;2023-09-19T12:56:07;5.23;;;1.50;;
16073;SDS011;8141;52.664;5.074;2023-09-19T12:58:53;5.17;;;1.70;;
16073;SDS011;8141;52.664;5.074;2023-09-19T13:01:31;6.37;;;1.80;;
16073;SDS011;8141;52.664;5.074;2023-09-19T13:04:16;4.37;;;1.70;;
16073;SDS011;8141;52.664;5.074;2023-09-19T13:06:45;7.57;;;1.63;;
16073;SDS011;8141;52.664;5.074;2023-09-19T13:09:15;5.03;;;1.90;;
16073;SDS011;8141;52.664;5.074;2023-09-19T13:11:42;5.57;;;1.67;;
16073;SDS011;8141;52.664;5.074;2023-09-19T13:14:25;4.07;;;1.40;;
16073;SDS011;8141;52.664;5.074;2023-09-19T13:19:41;6.50;;;1.87;;
16073;SDS011;8141;52.664;5.074;2023-09-19T13:25:07;7.30;;;1.73;;
16073;SDS011;8141;52.664;5.074;2023-09-19T13:27:55;7.73;;;1.87;;
16073;SDS011;8141;52.664;5.074;2023-09-19T13:30:23;5.10;;;1.80;;
16073;SDS011;8141;52.664;5.074;2023-09-19T13:32:51;4.77;;;1.57;;
16073;SDS011;8141;52.664;5.074;2023-09-19T13:35:29;5.73;;;2.10;;
16073;SDS011;8141;52.664;5.074;2023-09-19T13:37:54;9.77;;;2.40;;
16073;SDS011;8141;52.664;5.074;2023-09-19T13:40:20;8.10;;;2.17;;
16073;SDS011;8141;52.664;5.074;2023-09-19T13:42:46;6.90;;;2.23;;
16073;SDS011;8141;52.664;5.074;2023-09-19T13:45:12;9.13;;;2.73;;
16073;SDS011;8141;52.664;5.074;2023-09-19T13:47:40;7.70;;;1.87;;
16073;SDS011;8141;52.664;5.074;2023-09-19T13:50:07;8.50;;;2.10;;
16073;SDS011;8141;52.664;5.074;2023-09-19T13:52:33;7.23;;;2.20;;
16073;SDS011;8141;52.664;5.074;2023-09-19T13:54:59;6.60;;;2.57;;
16073;SDS011;8141;52.664;5.074;2023-09-19T13:57:25;9.20;;;2.40;;
16073;SDS011;8141;52.664;5.074;2023-09-19T13:59:52;8.00;;;2.10;;
16073;SDS011;8141;52.664;5.074;2023-09-19T14:02:21;6.43;;;2.57;;
16073;SDS011;8141;52.664;5.074;2023-09-19T14:04:51;7.90;;;2.47;;
16073;SDS011;8141;52.664;5.074;2023-09-19T14:07:17;8.43;;;2.50;;
16073;SDS011;8141;52.664;5.074;2023-09-19T14:09:45;9.87;;;2.67;;
16073;SDS011;8141;52.664;5.074;2023-09-19T14:12:11;7.70;;;2.33;;
16073;SDS011;8141;52.664;5.074;2023-09-19T14:14:37;6.87;;;2.30;;
16073;SDS011;8141;52.664;5.074;2023-09-19T14:17:03;8.53;;;2.27;;
16073;SDS011;8141;52.664;5.074;2023-09-19T14:19:30;8.90;;;2.50;;
16073;SDS011;8141;52.664;5.074;2023-09-19T14:21:55;8.30;;;2.47;;
16073;SDS011;8141;52.664;5.074;2023-09-19T14:24:22;8.73;;;2.67;;
16073;SDS011;8141;52.664;5.074;2023-09-19T14:26:48;5.40;;;2.27;;
16073;SDS011;8141;52.664;5.074;2023-09-19T14:29:15;10.17;;;2.90;;
16073;SDS011;8141;52.664;5.074;2023-09-19T14:31:42;7.10;;;2.63;;
16073;SDS011;8141;52.664;5.074;2023-09-19T14:34:08;12.40;;;3.20;;
16073;SDS011;8141;52.664;5.074;2023-09-19T14:36:37;12.93;;;3.97;;
16073;SDS011;8141;52.664;5.074;2023-09-19T14:39:04;7.67;;;2.60;;
16073;SDS011;8141;52.664;5.074;2023-09-19T14:41:30;14.07;;;2.87;;
16073;SDS011;8141;52.664;5.074;2023-09-19T14:43:56;7.77;;;2.90;;
16073;SDS011;8141;52.664;5.074;2023-09-19T14:46:22;10.13;;;3.27;;
16073;SDS011;8141;52.664;5.074;2023-09-19T14:48:49;10.33;;;2.60;;
16073;SDS011;8141;52.664;5.074;2023-09-19T14:51:18;11.53;;;3.37;;
16073;SDS011;8141;52.664;5.074;2023-09-19T14:53:44;9.60;;;3.03;;
16073;SDS011;8141;52.664;5.074;2023-09-19T14:56:12;9.53;;;2.63;;
16073;SDS011;8141;52.664;5.074;2023-09-19T14:58:41;12.67;;;3.67;;
16073;SDS011;8141;52.664;5.074;2023-09-19T15:01:10;9.93;;;3.47;;
16073;SDS011;8141;52.664;5.074;2023-09-19T15:03:38;9.97;;;3.13;;
16073;SDS011;8141;52.664;5.074;2023-09-19T15:06:09;10.87;;;3.57;;
16073;SDS011;8141;52.664;5.074;2023-09-19T15:08:45;11.33;;;3.23;;
16073;SDS011;8141;52.664;5.074;2023-09-19T15:11:18;9.10;;;2.80;;
16073;SDS011;8141;52.664;5.074;2023-09-19T15:13:45;7.90;;;2.67;;
16073;SDS011;8141;52.664;5.074;2023-09-19T15:16:13;9.20;;;2.97;;
16073;SDS011;8141;52.664;5.074;2023-09-19T15:18:43;8.33;;;2.40;;
16073;SDS011;8141;52.664;5.074;2023-09-19T15:21:13;11.33;;;3.40;;
16073;SDS011;8141;52.664;5.074;2023-09-19T15:23:40;9.07;;;3.03;;
16073;SDS011;8141;52.664;5.074;2023-09-19T15:26:08;9.53;;;3.00;;
16073;SDS011;8141;52.664;5.074;2023-09-19T15:28:36;10.93;;;2.93;;
16073;SDS011;8141;52.664;5.074;2023-09-19T15:33:32;8.97;;;3.10;;
16073;SDS011;8141;52.664;5.074;2023-09-19T15:36:08;9.17;;;2.73;;
16073;SDS011;8141;52.664;5.074;2023-09-19T15:41:34;13.07;;;3.33;;
16073;SDS011;8141;52.664;5.074;2023-09-19T15:44:10;8.67;;;3.23;;
16073;SDS011;8141;52.664;5.074;2023-09-19T15:46:41;10.55;;;3.63;;
16073;SDS011;8141;52.664;5.074;2023-09-19T15:49:07;10.93;;;3.47;;
16073;SDS011;8141;52.664;5.074;2023-09-19T15:51:33;12.57;;;3.37;;
16073;SDS011;8141;52.664;5.074;2023-09-19T15:54:01;8.60;;;3.07;;
16073;SDS011;8141;52.664;5.074;2023-09-19T15:56:34;7.53;;;3.10;;
16073;SDS011;8141;52.664;5.074;2023-09-19T15:59:00;7.67;;;2.80;;
16073;SDS011;8141;52.664;5.074;2023-09-19T16:01:26;7.67;;;2.80;;
16073;SDS011;8141;52.664;5.074;2023-09-19T16:03:52;6.90;;;2.70;;
16073;SDS011;8141;52.664;5.074;2023-09-19T16:06:23;8.60;;;3.33;;
16073;SDS011;8141;52.664;5.074;2023-09-19T16:08:51;9.70;;;3.20;;
16073;SDS011;8141;52.664;5.074;2023-09-19T16:11:23;9.23;;;3.40;;
16073;SDS011;8141;52.664;5.074;2023-09-19T16:13:51;7.70;;;2.87;;
16073;SDS011;8141;52.664;5.074;2023-09-19T16:16:18;8.73;;;2.60;;
16073;SDS011;8141;52.664;5.074;2023-09-19T16:18:54;8.87;;;3.10;;
16073;SDS011;8141;52.664;5.074;2023-09-19T16:21:26;9.00;;;3.10;;
16073;SDS011;8141;52.664;5.074;2023-09-19T16:23:53;9.67;;;3.10;;